createdAt,value
2023-04-17T00:01:00.751Z,10.36
2023-04-17T00:03:27.379Z,10.50
2023-04-17T00:05:54.138Z,10.41
2023-04-17T00:08:20.697Z,10.28
2023-04-17T00:10:54.002Z,10.47
2023-04-17T00:13:26.930Z,10.59
2023-04-17T00:15:53.406Z,10.66
2023-04-17T00:18:19.828Z,10.60
2023-04-17T00:20:46.269Z,10.45
2023-04-17T00:23:12.732Z,10.51
2023-04-17T00:25:39.200Z,10.79
2023-04-17T00:28:05.906Z,10.73
2023-04-17T00:30:32.422Z,10.45
2023-04-17T00:32:58.950Z,10.60
2023-04-17T00:35:25.606Z,10.62
2023-04-17T00:37:52.088Z,10.48
2023-04-17T00:40:18.702Z,10.63
2023-04-17T00:42:45.626Z,10.70
2023-04-17T00:45:12.066Z,10.37
2023-04-17T00:47:38.862Z,10.33
2023-04-17T00:50:05.658Z,10.51
2023-04-17T00:52:32.430Z,10.57
2023-04-17T00:55:00.371Z,10.25
2023-04-17T00:57:27.181Z,10.48
2023-04-17T00:59:55.981Z,10.53
2023-04-17T01:02:23.036Z,10.43
2023-04-17T01:04:49.616Z,10.48
2023-04-17T01:07:16.539Z,10.33
2023-04-17T01:09:43.043Z,10.33
2023-04-17T01:12:23.214Z,10.34
2023-04-17T01:14:56.814Z,10.21
2023-04-17T01:17:26.127Z,10.13
2023-04-17T01:19:52.834Z,9.85
2023-04-17T01:22:22.244Z,10.06
2023-04-17T01:24:53.574Z,9.79
2023-04-17T01:27:22.420Z,10.17
2023-04-17T01:29:49.022Z,10.13
2023-04-17T01:32:17.101Z,10.14
2023-04-17T01:34:43.610Z,9.88
2023-04-17T01:37:10.111Z,10.03
2023-04-17T01:39:37.212Z,10.15
2023-04-17T01:42:03.830Z,10.30
2023-04-17T01:44:30.467Z,10.20
2023-04-17T01:46:57.097Z,10.23
2023-04-17T01:49:23.589Z,10.25
2023-04-17T01:51:50.189Z,10.29
2023-04-17T01:54:16.684Z,10.41
2023-04-17T01:56:43.163Z,10.46
2023-04-17T01:59:10.160Z,10.37
2023-04-17T02:01:36.961Z,10.50
2023-04-17T02:04:03.687Z,10.43
2023-04-17T02:06:31.980Z,10.33
2023-04-17T02:08:59.690Z,10.55
2023-04-17T02:11:26.394Z,10.55
2023-04-17T02:13:53.454Z,10.40
2023-04-17T02:16:21.769Z,10.59
2023-04-17T02:18:49.604Z,10.41
2023-04-17T02:21:16.466Z,10.58
2023-04-17T02:23:43.364Z,10.38
2023-04-17T02:26:09.934Z,10.41
2023-04-17T02:28:36.454Z,10.58
2023-04-17T02:31:05.497Z,10.73
2023-04-17T02:33:31.993Z,10.60
2023-04-17T02:35:58.804Z,10.69
2023-04-17T02:38:34.197Z,10.55
2023-04-17T02:41:00.875Z,10.53
2023-04-17T02:43:29.969Z,10.30
2023-04-17T02:45:56.552Z,10.61
2023-04-17T02:48:24.572Z,10.67
2023-04-17T02:50:51.093Z,10.57
2023-04-17T02:53:19.477Z,10.66
2023-04-17T02:55:47.054Z,10.73
2023-04-17T02:58:15.121Z,10.68
2023-04-17T03:00:41.712Z,10.90
2023-04-17T03:03:13.624Z,10.74
2023-04-17T03:05:40.413Z,10.70
2023-04-17T03:08:08.134Z,10.73
2023-04-17T03:10:42.657Z,10.78
2023-04-17T03:13:09.165Z,10.67
2023-04-17T03:15:36.356Z,10.77
2023-04-17T03:18:03.101Z,10.66
2023-04-17T03:20:30.086Z,10.57
2023-04-17T03:22:56.718Z,10.77
2023-04-17T03:25:23.180Z,10.80
2023-04-17T03:27:52.864Z,10.66
2023-04-17T03:30:22.008Z,10.77
2023-04-17T03:32:50.748Z,10.89
2023-04-17T03:35:17.242Z,10.87
2023-04-17T03:37:43.975Z,10.99
2023-04-17T03:40:12.252Z,10.92
2023-04-17T03:42:38.784Z,10.88
2023-04-17T03:45:05.638Z,10.77
2023-04-17T03:47:33.642Z,10.91
2023-04-17T03:50:00.343Z,10.95
2023-04-17T03:52:31.108Z,10.85
2023-04-17T03:54:58.853Z,10.79
2023-04-17T03:57:26.324Z,10.76
2023-04-17T03:59:53.325Z,10.83
2023-04-17T04:02:20.704Z,10.54
2023-04-17T04:04:50.466Z,10.55
2023-04-17T04:07:17.276Z,10.75
2023-04-17T04:09:44.667Z,10.91
2023-04-17T04:12:11.394Z,10.75
2023-04-17T04:14:42.035Z,10.84
2023-04-17T04:17:09.674Z,10.97
2023-04-17T04:19:36.983Z,11.04
2023-04-17T04:22:06.745Z,11.18
2023-04-17T04:24:40.858Z,10.78
2023-04-17T04:27:07.606Z,10.74
2023-04-17T04:29:37.629Z,10.72
2023-04-17T04:32:09.605Z,10.51
2023-04-17T04:34:42.020Z,11.31
2023-04-17T04:37:08.603Z,11.07
2023-04-17T04:39:39.893Z,10.89
2023-04-17T04:42:09.954Z,10.85
2023-04-17T04:45:04.507Z,10.97
2023-04-17T04:47:32.046Z,10.91
2023-04-17T04:49:58.624Z,10.98
2023-04-17T04:52:26.373Z,11.05
2023-04-17T04:54:56.079Z,11.10
2023-04-17T04:57:24.005Z,10.99
2023-04-17T04:59:53.768Z,10.99
2023-04-17T05:02:28.806Z,11.15
2023-04-17T05:04:55.494Z,11.39
2023-04-17T05:07:22.713Z,11.02
2023-04-17T05:09:50.098Z,11.17
2023-04-17T05:12:16.897Z,11.18
2023-04-17T05:14:44.602Z,11.29
2023-04-17T05:17:11.134Z,11.10
2023-04-17T05:19:38.520Z,10.99
2023-04-17T05:22:08.474Z,11.07
2023-04-17T05:24:42.698Z,11.07
2023-04-17T05:27:09.534Z,11.34
2023-04-17T05:29:37.334Z,11.37
2023-04-17T05:32:04.113Z,11.30
2023-04-17T05:34:52.421Z,11.33
2023-04-17T05:37:23.056Z,11.38
2023-04-17T05:39:49.601Z,11.39
2023-04-17T05:42:16.105Z,11.32
2023-04-17T05:44:42.704Z,11.54
2023-04-17T05:47:09.191Z,11.25
2023-04-17T05:49:36.713Z,11.56
2023-04-17T05:52:03.515Z,11.49
2023-04-17T05:54:30.393Z,11.34
2023-04-17T05:56:57.893Z,11.57
2023-04-17T05:59:25.277Z,11.49
2023-04-17T06:01:52.649Z,11.40
2023-04-17T06:04:22.262Z,11.43
2023-04-17T06:06:50.094Z,11.68
2023-04-17T06:09:16.765Z,11.77
2023-04-17T06:11:43.270Z,11.91
2023-04-17T06:14:09.746Z,11.86
2023-04-17T06:16:37.851Z,11.83
2023-04-17T06:19:04.444Z,11.77
2023-04-17T06:21:32.016Z,12.08
2023-04-17T06:24:00.363Z,12.00
2023-04-17T06:26:26.817Z,12.16
2023-04-17T06:28:53.393Z,12.13
2023-04-17T06:31:19.989Z,12.32
2023-04-17T06:33:49.788Z,12.41
2023-04-17T06:36:17.840Z,12.21
2023-04-17T06:38:49.041Z,12.35
2023-04-17T06:41:17.721Z,12.48
2023-04-17T06:43:44.460Z,12.48
2023-04-17T06:46:13.640Z,12.57
2023-04-17T06:48:40.155Z,12.61
2023-04-17T06:51:06.620Z,12.52
2023-04-17T06:53:33.067Z,12.60
2023-04-17T06:55:59.764Z,12.78
2023-04-17T06:58:26.317Z,13.07
2023-04-17T07:00:52.751Z,13.18
2023-04-17T07:03:19.544Z,13.09
2023-04-17T07:05:46.498Z,12.98
2023-04-17T07:08:13.490Z,13.14
2023-04-17T07:10:39.965Z,13.54
2023-04-17T07:13:06.963Z,13.63
2023-04-17T07:15:33.527Z,13.66
2023-04-17T07:18:00.244Z,13.82
2023-04-17T07:20:26.878Z,14.20
2023-04-17T07:22:53.378Z,14.42
2023-04-17T07:25:20.050Z,14.24
2023-04-17T07:27:46.602Z,13.76
2023-04-17T07:30:13.237Z,14.73
2023-04-17T07:32:39.733Z,14.53
2023-04-17T07:35:06.468Z,14.61
2023-04-17T07:37:33.972Z,14.35
2023-04-17T07:40:00.420Z,14.67
2023-04-17T07:42:28.431Z,14.71
2023-04-17T07:44:54.848Z,15.03
2023-04-17T07:47:21.600Z,14.95
2023-04-17T07:49:49.166Z,14.83
2023-04-17T07:52:17.658Z,15.13
2023-04-17T07:54:44.582Z,15.46
2023-04-17T07:57:11.188Z,15.71
2023-04-17T07:59:37.712Z,15.73
2023-04-17T08:02:04.305Z,16.17
2023-04-17T08:04:31.221Z,16.09
2023-04-17T08:06:57.808Z,16.03
2023-04-17T08:09:24.319Z,16.13
2023-04-17T08:11:57.469Z,16.24
2023-04-17T08:14:24.946Z,16.27
2023-04-17T08:16:51.734Z,16.65
2023-04-17T08:19:18.309Z,16.74
2023-04-17T08:21:47.050Z,15.93
2023-04-17T08:24:13.486Z,16.23
2023-04-17T08:26:40.013Z,15.66
2023-04-17T08:29:07.347Z,16.20
2023-04-17T08:31:36.628Z,16.37
2023-04-17T08:34:13.622Z,16.66
2023-04-17T08:36:41.384Z,16.83
2023-04-17T08:39:09.940Z,16.90
2023-04-17T08:41:43.025Z,16.92
2023-04-17T08:44:09.512Z,16.92
2023-04-17T08:46:36.370Z,16.46
2023-04-17T08:49:03.341Z,16.98
2023-04-17T08:51:29.904Z,17.38
2023-04-17T08:53:56.335Z,17.57
2023-04-17T08:56:22.798Z,17.62
2023-04-17T08:58:49.312Z,17.74
2023-04-17T09:01:16.589Z,16.92
2023-04-17T09:03:44.287Z,17.21
2023-04-17T09:06:11.348Z,16.72
2023-04-17T09:08:38.194Z,17.23
2023-04-17T09:11:04.873Z,16.92
2023-04-17T09:13:40.205Z,17.42
2023-04-17T09:16:07.837Z,17.75
2023-04-17T09:18:35.028Z,17.56
2023-04-17T09:21:02.342Z,17.88
2023-04-17T09:23:29.796Z,18.11
2023-04-17T09:26:07.332Z,18.43
2023-04-17T09:28:39.252Z,18.02
2023-04-17T09:31:18.428Z,18.19
2023-04-17T09:33:58.391Z,18.58
2023-04-17T09:36:25.085Z,18.47
2023-04-17T09:38:51.726Z,18.33
2023-04-17T09:41:28.960Z,18.59
2023-04-17T09:43:56.537Z,18.88
2023-04-17T09:46:40.555Z,18.72
2023-04-17T09:49:10.894Z,18.90
2023-04-17T09:51:37.569Z,19.16
2023-04-17T09:54:05.581Z,19.22
2023-04-17T09:56:33.802Z,19.23
2023-04-17T09:59:02.824Z,19.22
2023-04-17T10:01:30.460Z,19.43
2023-04-17T10:03:58.153Z,19.34
2023-04-17T10:06:26.715Z,20.08
2023-04-17T10:08:53.750Z,20.60
2023-04-17T10:11:22.012Z,20.77
2023-04-17T10:13:52.945Z,21.30
2023-04-17T10:16:19.540Z,21.06
2023-04-17T10:18:46.154Z,20.96
2023-04-17T10:21:20.089Z,20.30
2023-04-17T10:23:46.643Z,20.26
2023-04-17T10:26:33.397Z,19.52
2023-04-17T10:28:59.894Z,19.67
2023-04-17T10:31:45.296Z,19.52
2023-04-17T10:34:31.722Z,19.19
2023-04-17T10:36:58.300Z,18.68
2023-04-17T10:39:24.712Z,19.31
2023-04-17T10:42:03.318Z,20.05
2023-04-17T10:44:33.636Z,19.12
2023-04-17T10:47:05.980Z,18.94
2023-04-17T10:49:50.955Z,18.90
2023-04-17T10:52:32.855Z,19.01
2023-04-17T10:55:08.259Z,18.92
2023-04-17T10:57:53.490Z,19.02
2023-04-17T11:00:21.513Z,18.69
2023-04-17T11:02:50.339Z,18.54
2023-04-17T11:05:17.498Z,18.27
2023-04-17T11:07:44.603Z,18.27
2023-04-17T11:10:12.300Z,18.73
2023-04-17T11:12:39.311Z,18.38
2023-04-17T11:15:06.350Z,18.74
2023-04-17T11:17:33.030Z,18.61
2023-04-17T11:19:59.997Z,18.67
2023-04-17T11:22:27.919Z,18.83
2023-04-17T11:24:54.366Z,19.11
2023-04-17T11:27:22.240Z,19.76
2023-04-17T11:29:48.712Z,19.33
2023-04-17T11:32:15.954Z,19.08
2023-04-17T11:34:42.534Z,19.23
2023-04-17T11:37:13.088Z,19.28
2023-04-17T11:39:41.827Z,19.14
2023-04-17T11:42:08.379Z,19.07
2023-04-17T11:44:34.831Z,19.12
2023-04-17T11:47:01.974Z,19.07
2023-04-17T11:49:29.449Z,18.99
2023-04-17T11:51:57.704Z,18.76
2023-04-17T11:54:27.821Z,18.51
2023-04-17T11:57:01.657Z,18.31
2023-04-17T11:59:31.686Z,18.56
2023-04-17T12:02:00.726Z,18.93
2023-04-17T12:04:29.194Z,19.19
2023-04-17T12:06:57.916Z,19.34
2023-04-17T12:09:31.181Z,19.33
2023-04-17T12:12:01.730Z,18.99
2023-04-17T12:14:28.244Z,18.71
2023-04-17T12:16:54.716Z,19.16
2023-04-17T12:19:21.333Z,19.52
2023-04-17T12:21:48.040Z,19.34
2023-04-17T12:24:14.768Z,19.55
2023-04-17T12:26:47.566Z,19.12
2023-04-17T12:29:14.838Z,18.87
2023-04-17T12:31:41.626Z,19.20
2023-04-17T12:34:08.135Z,18.97
2023-04-17T12:36:34.887Z,19.37
2023-04-17T12:39:01.598Z,19.18
2023-04-17T12:41:28.229Z,19.05
2023-04-17T12:43:54.970Z,19.28
2023-04-17T12:46:21.698Z,19.03
2023-04-17T12:48:48.289Z,19.51
2023-04-17T12:51:14.920Z,19.53
2023-04-17T12:53:41.635Z,19.48
2023-04-17T12:56:08.202Z,19.55
2023-04-17T12:58:34.669Z,19.42
2023-04-17T13:01:01.193Z,19.36
2023-04-17T13:03:27.889Z,19.82
2023-04-17T13:05:54.573Z,19.53
2023-04-17T13:08:21.087Z,19.05
2023-04-17T13:10:47.590Z,19.23
2023-04-17T13:13:14.045Z,19.30
2023-04-17T13:15:40.715Z,19.39
2023-04-17T13:18:08.400Z,18.33
2023-04-17T13:20:35.235Z,18.35
2023-04-17T13:23:01.798Z,18.20
2023-04-17T13:25:29.314Z,18.19
2023-04-17T13:27:55.795Z,18.26
2023-04-17T13:30:22.892Z,18.14
2023-04-17T13:32:49.411Z,17.91
2023-04-17T13:35:15.993Z,18.14
2023-04-17T13:37:42.897Z,17.25
2023-04-17T13:40:10.837Z,17.58
2023-04-17T13:42:37.422Z,17.65
2023-04-17T13:45:04.520Z,17.77
2023-04-17T13:47:31.062Z,17.58
2023-04-17T13:49:57.549Z,17.43
2023-04-17T13:52:24.063Z,17.69
2023-04-17T13:54:50.586Z,17.74
2023-04-17T13:57:19.965Z,17.62
2023-04-17T13:59:46.569Z,17.56
2023-04-17T14:02:13.188Z,17.73
2023-04-17T14:04:39.810Z,17.89
2023-04-17T14:07:06.482Z,17.64
2023-04-17T14:09:32.958Z,17.66
2023-04-17T14:12:02.393Z,17.37
2023-04-17T14:14:28.828Z,17.51
2023-04-17T14:16:55.274Z,17.61
2023-04-17T14:19:21.857Z,17.67
2023-04-17T14:21:48.341Z,17.91
2023-04-17T14:24:14.834Z,17.70
2023-04-17T14:26:42.062Z,17.76
2023-04-17T14:29:10.623Z,17.61
2023-04-17T14:31:37.517Z,17.70
2023-04-17T14:34:04.020Z,17.63
2023-04-17T14:36:31.110Z,17.41
2023-04-17T14:38:58.536Z,17.54
2023-04-17T14:41:29.734Z,17.41
2023-04-17T14:43:56.531Z,17.79
2023-04-17T14:46:23.233Z,17.98
2023-04-17T14:48:55.515Z,18.09
2023-04-17T14:51:25.252Z,18.35
2023-04-17T14:53:52.983Z,18.15
2023-04-17T14:56:21.345Z,18.21
2023-04-17T14:58:47.993Z,18.16
2023-04-17T15:01:14.466Z,19.20
2023-04-17T15:03:41.693Z,19.49
2023-04-17T15:06:09.643Z,20.09
2023-04-17T15:08:36.096Z,20.19
2023-04-17T15:11:02.552Z,20.36
2023-04-17T15:13:29.057Z,19.45
2023-04-17T15:15:55.569Z,20.33
2023-04-17T15:18:22.087Z,20.09
2023-04-17T15:20:48.555Z,19.96
2023-04-17T15:23:17.430Z,20.11
2023-04-17T15:25:43.893Z,20.39
2023-04-17T15:28:10.499Z,19.20
2023-04-17T15:30:36.945Z,19.40
2023-04-17T15:33:03.581Z,19.50
2023-04-17T15:35:30.153Z,19.99
2023-04-17T15:37:56.952Z,19.61
2023-04-17T15:40:23.531Z,19.90
2023-04-17T15:42:50.005Z,19.74
2023-04-17T15:45:16.448Z,19.63
2023-04-17T15:47:42.913Z,19.58
2023-04-17T15:50:09.785Z,19.34
2023-04-17T15:52:36.268Z,18.92
2023-04-17T15:55:02.774Z,19.13
2023-04-17T15:57:29.226Z,18.92
2023-04-17T15:59:55.701Z,18.95
2023-04-17T16:02:22.563Z,18.76
2023-04-17T16:04:49.109Z,18.63
2023-04-17T16:07:16.475Z,18.56
2023-04-17T16:09:44.641Z,18.31
2023-04-17T16:12:11.233Z,18.47
2023-04-17T16:14:38.302Z,18.31
2023-04-17T16:17:04.978Z,18.28
2023-04-17T16:19:32.111Z,18.28
2023-04-17T16:21:58.656Z,18.09
2023-04-17T16:24:25.593Z,17.98
2023-04-17T16:26:57.179Z,18.02
2023-04-17T16:29:24.496Z,17.85
2023-04-17T16:31:51.625Z,17.37
2023-04-17T16:34:18.195Z,17.41
2023-04-17T16:36:45.956Z,17.10
2023-04-17T16:39:12.867Z,17.33
2023-04-17T16:41:39.589Z,17.32
2023-04-17T16:44:06.133Z,17.10
2023-04-17T16:46:45.607Z,16.97
2023-04-17T16:49:19.182Z,16.85
2023-04-17T16:51:45.673Z,16.62
2023-04-17T16:54:12.384Z,16.49
2023-04-17T16:56:39.043Z,16.52
2023-04-17T16:59:05.702Z,16.38
2023-04-17T17:01:32.221Z,16.04
2023-04-17T17:03:58.905Z,16.18
2023-04-17T17:06:25.380Z,16.19
2023-04-17T17:08:54.588Z,15.88
2023-04-17T17:11:21.947Z,15.76
2023-04-17T17:13:49.343Z,15.49
2023-04-17T17:16:16.478Z,15.48
2023-04-17T17:18:43.170Z,15.12
2023-04-17T17:21:09.945Z,15.12
2023-04-17T17:23:37.869Z,15.18
2023-04-17T17:26:04.620Z,15.16
2023-04-17T17:28:31.381Z,15.07
2023-04-17T17:31:05.369Z,14.61
2023-04-17T17:33:32.136Z,14.48
2023-04-17T17:35:59.066Z,14.74
2023-04-17T17:38:28.449Z,14.75
2023-04-17T17:40:56.137Z,14.63
2023-04-17T17:43:22.697Z,14.43
2023-04-17T17:45:49.684Z,14.48
2023-04-17T17:48:16.997Z,14.44
2023-04-17T17:50:43.733Z,14.32
2023-04-17T17:53:10.600Z,14.27
2023-04-17T17:55:37.977Z,14.11
2023-04-17T17:58:08.523Z,14.14
2023-04-17T18:00:35.466Z,13.91
2023-04-17T18:03:02.298Z,14.22
2023-04-17T18:05:28.952Z,14.11
2023-04-17T18:07:55.507Z,14.05
2023-04-17T18:10:22.069Z,14.01
2023-04-17T18:12:49.204Z,14.04
2023-04-17T18:15:15.693Z,13.87
2023-04-17T18:17:42.206Z,13.83
2023-04-17T18:20:09.100Z,13.64
2023-04-17T18:22:36.659Z,13.65
2023-04-17T18:25:03.184Z,13.67
2023-04-17T18:27:30.872Z,13.51
2023-04-17T18:29:58.016Z,13.63
2023-04-17T18:32:24.538Z,13.56
2023-04-17T18:34:51.282Z,13.58
2023-04-17T18:37:18.362Z,13.52
2023-04-17T18:39:44.889Z,13.43
2023-04-17T18:42:11.438Z,13.44
2023-04-17T18:44:37.935Z,13.68
2023-04-17T18:47:04.575Z,13.34
2023-04-17T18:49:31.101Z,13.22
2023-04-17T18:51:57.631Z,13.18
2023-04-17T18:54:24.270Z,13.21
2023-04-17T18:56:50.902Z,13.24
2023-04-17T18:59:19.937Z,13.20
2023-04-17T19:01:46.428Z,13.35
2023-04-17T19:04:13.325Z,13.30
2023-04-17T19:06:40.183Z,13.23
2023-04-17T19:09:06.744Z,13.16
2023-04-17T19:11:33.540Z,13.15
2023-04-17T19:14:00.022Z,13.06
2023-04-17T19:16:26.649Z,13.08
2023-04-17T19:18:53.129Z,12.96
2023-04-17T19:21:19.622Z,13.03
2023-04-17T19:23:47.467Z,12.96
2023-04-17T19:26:15.756Z,12.87
2023-04-17T19:28:42.287Z,12.91
2023-04-17T19:31:08.858Z,12.82
2023-04-17T19:33:35.536Z,12.77
2023-04-17T19:36:04.948Z,12.68
2023-04-17T19:38:31.776Z,12.74
2023-04-17T19:41:17.838Z,12.88
2023-04-17T19:43:44.899Z,12.58
2023-04-17T19:46:13.380Z,12.66
2023-04-17T19:48:40.344Z,12.83
2023-04-17T19:51:06.962Z,12.63
2023-04-17T19:53:37.904Z,12.73
2023-04-17T19:56:07.627Z,12.94
2023-04-17T19:58:35.182Z,12.99
2023-04-17T20:01:01.660Z,12.95
2023-04-17T20:03:29.505Z,12.96
2023-04-17T20:05:57.350Z,13.06
2023-04-17T20:08:24.224Z,13.18
2023-04-17T20:10:50.776Z,13.13
2023-04-17T20:13:17.322Z,13.03
2023-04-17T20:15:43.808Z,13.03
2023-04-17T20:18:11.686Z,12.92
2023-04-17T20:20:39.090Z,12.89
2023-04-17T20:23:05.809Z,12.53
2023-04-17T20:25:32.324Z,12.43
2023-04-17T20:27:58.912Z,12.70
2023-04-17T20:30:25.481Z,12.70
2023-04-17T20:32:52.152Z,12.48
2023-04-17T20:35:23.818Z,12.51
2023-04-17T20:37:51.580Z,12.49
2023-04-17T20:40:18.711Z,12.47
2023-04-17T20:42:45.477Z,12.55
2023-04-17T20:45:12.274Z,12.30
2023-04-17T20:47:49.327Z,12.33
2023-04-17T20:50:22.327Z,12.31
2023-04-17T20:52:48.841Z,12.31
2023-04-17T20:55:18.213Z,12.26
2023-04-17T20:57:44.987Z,12.09
2023-04-17T21:00:12.100Z,12.07
2023-04-17T21:02:38.807Z,12.07
2023-04-17T21:05:06.511Z,11.99
2023-04-17T21:07:33.060Z,11.99
2023-04-17T21:09:59.568Z,11.84
2023-04-17T21:12:26.097Z,11.85
2023-04-17T21:14:52.616Z,11.79
2023-04-17T21:17:19.199Z,11.70
2023-04-17T21:19:46.114Z,11.71
2023-04-17T21:22:13.054Z,11.71
2023-04-17T21:24:39.737Z,11.68
2023-04-17T21:27:06.224Z,11.46
2023-04-17T21:29:32.675Z,11.58
2023-04-17T21:31:59.500Z,11.62
2023-04-17T21:34:26.256Z,11.89
2023-04-17T21:36:53.440Z,11.67
2023-04-17T21:39:20.318Z,11.59
2023-04-17T21:41:46.813Z,11.60
2023-04-17T21:44:13.470Z,11.65
2023-04-17T21:46:40.143Z,11.70
2023-04-17T21:49:06.750Z,11.70
2023-04-17T21:51:33.268Z,11.74
2023-04-17T21:53:59.728Z,11.75
2023-04-17T21:56:26.284Z,11.84
2023-04-17T21:58:52.830Z,11.79
2023-04-17T22:01:19.420Z,11.79
2023-04-17T22:03:45.921Z,11.82
2023-04-17T22:06:12.419Z,11.74
2023-04-17T22:08:39.248Z,12.12
2023-04-17T22:11:05.866Z,11.85
2023-04-17T22:13:32.301Z,11.73
2023-04-17T22:15:58.731Z,11.81
2023-04-17T22:18:26.146Z,11.78
2023-04-17T22:20:52.611Z,11.93
2023-04-17T22:23:19.258Z,11.79
2023-04-17T22:25:45.718Z,11.60
2023-04-17T22:28:12.149Z,11.59
2023-04-17T22:30:38.746Z,11.57
2023-04-17T22:33:05.354Z,11.60
2023-04-17T22:35:31.819Z,11.70
2023-04-17T22:37:58.318Z,11.78
2023-04-17T22:40:24.827Z,11.74
2023-04-17T22:42:51.286Z,11.71
2023-04-17T22:45:17.836Z,11.46
2023-04-17T22:47:44.299Z,11.49
2023-04-17T22:50:10.817Z,11.67
2023-04-17T22:52:37.288Z,11.67
2023-04-17T22:55:04.200Z,11.70
2023-04-17T22:57:30.680Z,11.69
2023-04-17T22:59:57.205Z,11.59
2023-04-17T23:02:23.791Z,11.60
2023-04-17T23:04:50.321Z,11.73
2023-04-17T23:07:16.792Z,11.77
2023-04-17T23:09:43.268Z,11.67
2023-04-17T23:12:09.739Z,11.63
2023-04-17T23:14:36.248Z,11.68
2023-04-17T23:17:02.728Z,11.59
2023-04-17T23:19:29.242Z,11.63
2023-04-17T23:21:55.931Z,11.66
2023-04-17T23:24:22.394Z,11.64
2023-04-17T23:26:48.885Z,11.63
2023-04-17T23:29:15.315Z,11.73
2023-04-17T23:31:42.837Z,11.57
2023-04-17T23:34:09.403Z,11.71
2023-04-17T23:36:35.867Z,11.70
2023-04-17T23:39:02.316Z,11.68
2023-04-17T23:41:29.612Z,11.57
2023-04-17T23:43:56.227Z,11.53
2023-04-17T23:46:23.217Z,11.57
2023-04-17T23:48:49.882Z,11.46
2023-04-17T23:51:16.400Z,11.66
2023-04-17T23:53:42.972Z,11.85
2023-04-17T23:56:09.473Z,11.55
2023-04-17T23:58:35.975Z,11.58
